createdAt,value
2022-10-23T00:01:45.048Z,76.36
2022-10-23T00:04:17.728Z,76.44
2022-10-23T00:06:46.154Z,76.55
2022-10-23T00:09:17.959Z,76.63
2022-10-23T00:11:50.276Z,76.72
2022-10-23T00:14:21.288Z,76.73
2022-10-23T00:16:48.870Z,76.86
2022-10-23T00:19:16.980Z,76.97
2022-10-23T00:21:44.675Z,77.00
2022-10-23T00:24:12.466Z,77.08
2022-10-23T00:26:40.209Z,77.28
2022-10-23T00:29:09.285Z,77.37
2022-10-23T00:31:38.308Z,77.37
2022-10-23T00:34:07.784Z,77.55
2022-10-23T00:36:35.859Z,77.62
2022-10-23T00:39:05.140Z,77.63
2022-10-23T00:41:34.188Z,77.60
2022-10-23T00:44:12.765Z,77.67
2022-10-23T00:46:40.450Z,77.64
2022-10-23T00:49:09.362Z,77.58
2022-10-23T00:51:42.381Z,77.58
2022-10-23T00:54:23.385Z,77.54
2022-10-23T00:56:46.132Z,77.57
2022-10-23T00:59:17.423Z,77.55
2022-10-23T01:01:50.404Z,77.65
2022-10-23T01:04:20.576Z,77.53
2022-10-23T01:07:17.530Z,77.57
2022-10-23T01:10:04.554Z,77.63
2022-10-23T01:13:06.483Z,77.72
2022-10-23T01:15:55.483Z,77.78
2022-10-23T01:18:37.278Z,77.93
2022-10-23T01:21:37.615Z,77.94
2022-10-23T01:24:45.947Z,78.15
2022-10-23T01:27:24.192Z,78.28
2022-10-23T01:30:08.602Z,78.46
2022-10-23T01:33:04.250Z,78.62
2022-10-23T01:35:47.464Z,78.66
2022-10-23T01:38:20.880Z,78.80
2022-10-23T01:41:01.209Z,78.95
2022-10-23T01:43:34.321Z,78.99
2022-10-23T01:46:05.746Z,79.02
2022-10-23T01:48:37.174Z,79.01
2022-10-23T01:51:08.791Z,78.95
2022-10-23T01:53:40.942Z,78.98
2022-10-23T01:56:13.936Z,78.86
2022-10-23T01:58:46.781Z,78.85
2022-10-23T02:01:18.158Z,78.84
2022-10-23T02:03:49.989Z,78.81
2022-10-23T02:06:18.348Z,78.83
2022-10-23T02:08:46.743Z,79.13
2022-10-23T02:11:17.960Z,79.23
2022-10-23T02:14:10.754Z,80.96
2022-10-23T02:16:54.111Z,82.51
2022-10-23T02:19:31.091Z,84.48
2022-10-23T02:22:14.634Z,85.19
2022-10-23T02:24:59.806Z,84.40
2022-10-23T02:27:45.091Z,85.51
2022-10-23T02:30:16.850Z,85.16
2022-10-23T02:32:53.386Z,85.41
2022-10-23T02:35:23.747Z,86.10
2022-10-23T02:37:57.596Z,86.03
2022-10-23T02:40:41.129Z,86.31
2022-10-23T02:43:23.377Z,87.83
2022-10-23T02:46:02.707Z,86.85
2022-10-23T02:48:35.649Z,87.05
2022-10-23T02:51:25.431Z,87.55
2022-10-23T02:54:29.071Z,89.17
2022-10-23T02:57:37.140Z,89.82
2022-10-23T03:00:11.078Z,90.51
2022-10-23T03:02:56.624Z,89.05
2022-10-23T03:05:30.132Z,89.43
2022-10-23T03:07:57.815Z,89.74
2022-10-23T03:10:25.552Z,89.36
2022-10-23T03:12:53.527Z,88.87
2022-10-23T03:15:21.458Z,88.43
2022-10-23T03:17:49.885Z,88.50
2022-10-23T03:20:18.294Z,88.23
2022-10-23T03:22:46.593Z,88.47
2022-10-23T03:25:14.382Z,88.34
2022-10-23T03:27:42.125Z,88.41
2022-10-23T03:30:11.601Z,88.34
2022-10-23T03:32:40.548Z,88.57
2022-10-23T03:35:08.721Z,88.26
2022-10-23T03:37:36.201Z,88.53
2022-10-23T03:40:05.155Z,88.44
2022-10-23T03:42:34.800Z,88.76
2022-10-23T03:45:02.431Z,88.79
2022-10-23T03:47:30.244Z,88.53
2022-10-23T03:49:58.416Z,88.26
2022-10-23T03:52:25.939Z,88.10
2022-10-23T03:54:53.519Z,88.18
2022-10-23T03:57:20.952Z,87.56
2022-10-23T03:59:48.380Z,87.32
2022-10-23T04:02:17.310Z,86.98
2022-10-23T04:04:44.863Z,86.81
2022-10-23T04:07:12.465Z,86.58
2022-10-23T04:09:40.116Z,86.48
2022-10-23T04:12:09.189Z,86.08
2022-10-23T04:14:37.081Z,86.12
2022-10-23T04:17:05.013Z,86.03
2022-10-23T04:19:32.639Z,85.73
2022-10-23T04:22:00.120Z,85.66
2022-10-23T04:24:27.807Z,85.63
2022-10-23T04:26:55.607Z,85.51
2022-10-23T04:29:25.391Z,85.85
2022-10-23T04:31:53.012Z,85.65
2022-10-23T04:34:20.690Z,86.14
2022-10-23T04:36:48.452Z,86.92
2022-10-23T04:39:16.129Z,86.45
2022-10-23T04:41:43.663Z,87.04
2022-10-23T04:44:11.416Z,86.97
2022-10-23T04:46:39.276Z,86.83
2022-10-23T04:49:06.917Z,87.02
2022-10-23T04:51:53.031Z,86.83
2022-10-23T04:54:25.126Z,86.78
2022-10-23T04:56:57.008Z,86.71
2022-10-23T04:59:24.935Z,86.66
2022-10-23T05:01:52.740Z,87.21
2022-10-23T05:04:20.587Z,86.73
2022-10-23T05:07:06.817Z,86.29
2022-10-23T05:09:42.447Z,86.40
2022-10-23T05:12:11.798Z,86.21
2022-10-23T05:14:39.614Z,85.73
2022-10-23T05:17:17.484Z,85.53
2022-10-23T05:19:51.574Z,85.43
2022-10-23T05:22:21.295Z,85.21
2022-10-23T05:24:50.948Z,85.01
2022-10-23T05:27:20.356Z,84.97
2022-10-23T05:29:47.848Z,84.89
2022-10-23T05:32:17.620Z,84.65
2022-10-23T05:34:45.726Z,84.60
2022-10-23T05:37:16.321Z,84.30
2022-10-23T05:39:45.279Z,84.24
2022-10-23T05:42:14.830Z,84.10
2022-10-23T05:44:42.916Z,83.90
2022-10-23T05:47:12.257Z,83.86
2022-10-23T05:49:58.498Z,83.65
2022-10-23T05:52:36.512Z,83.72
2022-10-23T05:55:09.471Z,83.57
2022-10-23T05:57:45.693Z,83.45
2022-10-23T06:00:15.629Z,83.61
2022-10-23T06:02:43.072Z,83.37
2022-10-23T06:05:15.692Z,83.38
2022-10-23T06:07:48.163Z,83.69
2022-10-23T06:10:15.751Z,83.76
2022-10-23T06:12:45.152Z,83.25
2022-10-23T06:15:14.678Z,83.55
2022-10-23T06:17:44.446Z,83.29
2022-10-23T06:20:12.497Z,83.49
2022-10-23T06:22:40.522Z,83.40
2022-10-23T06:25:13.334Z,83.27
2022-10-23T06:27:41.331Z,83.13
2022-10-23T06:30:10.517Z,83.06
2022-10-23T06:32:38.061Z,82.77
2022-10-23T06:35:08.731Z,81.91
2022-10-23T06:37:36.408Z,81.68
2022-10-23T06:40:09.634Z,81.82
2022-10-23T06:42:57.563Z,81.99
2022-10-23T06:45:25.115Z,82.10
2022-10-23T06:47:54.437Z,82.01
2022-10-23T06:50:33.900Z,81.45
2022-10-23T06:53:04.954Z,81.13
2022-10-23T06:55:33.621Z,81.12
2022-10-23T06:58:02.123Z,81.13
2022-10-23T07:00:29.901Z,80.97
2022-10-23T07:02:57.350Z,81.26
2022-10-23T07:05:25.036Z,81.58
2022-10-23T07:07:52.803Z,82.41
2022-10-23T07:10:22.771Z,81.99
2022-10-23T07:12:56.706Z,82.41
2022-10-23T07:15:39.414Z,83.01
2022-10-23T07:18:10.683Z,82.65
2022-10-23T07:20:42.087Z,82.77
2022-10-23T07:23:11.763Z,82.70
2022-10-23T07:25:39.693Z,82.52
2022-10-23T07:28:08.215Z,82.74
2022-10-23T07:30:36.561Z,82.56
2022-10-23T07:33:04.428Z,82.67
2022-10-23T07:35:46.884Z,82.56
2022-10-23T07:38:17.160Z,82.36
2022-10-23T07:40:46.683Z,82.29
2022-10-23T07:43:17.907Z,82.28
2022-10-23T07:45:48.291Z,82.22
2022-10-23T07:48:21.327Z,82.24
2022-10-23T07:50:51.491Z,82.29
2022-10-23T07:53:24.904Z,82.57
2022-10-23T07:56:00.697Z,82.87
2022-10-23T07:58:30.260Z,83.22
2022-10-23T08:01:23.368Z,83.82
2022-10-23T08:03:50.948Z,84.05
2022-10-23T08:06:18.886Z,84.55
2022-10-23T08:08:47.148Z,85.01
2022-10-23T08:11:17.787Z,85.30
2022-10-23T08:13:47.580Z,84.66
2022-10-23T08:16:15.286Z,84.77
2022-10-23T08:18:54.825Z,84.86
2022-10-23T08:21:22.740Z,84.82
2022-10-23T08:23:59.790Z,84.75
2022-10-23T08:26:28.918Z,84.83
2022-10-23T08:28:59.076Z,85.06
2022-10-23T08:31:27.541Z,85.41
2022-10-23T08:34:05.698Z,84.96
2022-10-23T08:36:33.443Z,85.68
2022-10-23T08:39:01.239Z,85.66
2022-10-23T08:41:37.046Z,85.06
2022-10-23T08:44:38.350Z,85.30
2022-10-23T08:47:17.114Z,84.90
2022-10-23T08:50:00.255Z,84.90
2022-10-23T08:52:35.855Z,84.70
2022-10-23T08:55:23.750Z,84.42
2022-10-23T08:58:10.120Z,84.31
2022-10-23T09:00:37.841Z,84.09
2022-10-23T09:03:05.636Z,84.13
2022-10-23T09:05:39.025Z,83.93
2022-10-23T09:08:47.844Z,83.95
2022-10-23T09:11:26.675Z,84.07
2022-10-23T09:14:14.638Z,83.75
2022-10-23T09:17:04.412Z,83.69
2022-10-23T09:19:32.349Z,83.28
2022-10-23T09:22:00.756Z,83.46
2022-10-23T09:24:30.267Z,83.27
2022-10-23T09:26:58.163Z,83.60
2022-10-23T09:29:31.353Z,83.56
2022-10-23T09:32:03.554Z,83.47
2022-10-23T09:34:34.338Z,83.64
2022-10-23T09:37:22.325Z,83.41
2022-10-23T09:40:19.328Z,83.56
2022-10-23T09:43:01.448Z,83.23
2022-10-23T09:45:33.755Z,82.86
2022-10-23T09:48:14.900Z,82.31
2022-10-23T09:50:48.927Z,82.18
2022-10-23T09:53:33.252Z,82.21
2022-10-23T09:56:10.897Z,82.26
2022-10-23T09:58:43.496Z,82.17
2022-10-23T10:01:30.144Z,81.55
2022-10-23T10:03:59.910Z,81.54
2022-10-23T10:06:31.117Z,81.54
2022-10-23T10:09:03.797Z,81.60
2022-10-23T10:11:40.671Z,81.51
2022-10-23T10:14:45.043Z,81.59
2022-10-23T10:17:44.482Z,81.47
2022-10-23T10:20:48.541Z,81.02
2022-10-23T10:23:47.807Z,80.90
2022-10-23T10:26:40.947Z,80.85
2022-10-23T10:29:27.343Z,80.23
2022-10-23T10:32:24.262Z,80.16
2022-10-23T10:34:57.580Z,80.26
2022-10-23T10:37:49.546Z,80.44
2022-10-23T10:40:34.875Z,79.63
2022-10-23T10:43:32.227Z,79.49
2022-10-23T10:46:22.890Z,79.45
2022-10-23T10:48:58.440Z,79.69
2022-10-23T10:51:59.616Z,79.67
2022-10-23T10:54:45.258Z,79.78
2022-10-23T10:57:45.585Z,79.65
2022-10-23T11:00:23.007Z,79.51
2022-10-23T11:03:15.041Z,79.02
2022-10-23T11:05:50.093Z,79.05
2022-10-23T11:08:27.813Z,79.34
2022-10-23T11:11:00.047Z,79.12
2022-10-23T11:13:40.098Z,79.02
2022-10-23T11:16:23.071Z,79.23
2022-10-23T11:19:27.578Z,79.32
2022-10-23T11:22:09.632Z,79.54
2022-10-23T11:24:58.319Z,78.11
2022-10-23T11:27:46.995Z,77.67
2022-10-23T11:30:56.890Z,78.04
2022-10-23T11:33:53.969Z,78.02
2022-10-23T11:36:55.028Z,78.43
2022-10-23T11:39:29.178Z,78.32
2022-10-23T11:42:10.080Z,78.66
2022-10-23T11:44:50.321Z,78.61
2022-10-23T11:47:40.431Z,78.62
2022-10-23T11:50:12.691Z,78.34
2022-10-23T11:53:16.124Z,78.41
2022-10-23T11:55:38.017Z,78.28
2022-10-23T11:58:13.971Z,78.42
2022-10-23T12:00:52.469Z,78.57
2022-10-23T12:03:30.065Z,78.32
2022-10-23T12:06:02.463Z,78.46
2022-10-23T12:08:34.671Z,78.05
2022-10-23T12:11:02.413Z,78.27
2022-10-23T12:13:38.342Z,78.06
2022-10-23T12:16:07.325Z,78.04
2022-10-23T12:18:52.419Z,78.28
2022-10-23T12:21:26.527Z,78.31
2022-10-23T12:24:36.347Z,77.99
2022-10-23T12:27:18.512Z,77.70
2022-10-23T12:30:11.784Z,77.73
2022-10-23T12:33:03.461Z,77.97
2022-10-23T12:35:55.002Z,77.68
2022-10-23T12:38:26.722Z,77.93
2022-10-23T12:41:04.008Z,77.82
2022-10-23T12:43:36.269Z,77.30
2022-10-23T12:46:34.494Z,77.37
2022-10-23T12:49:06.515Z,77.20
2022-10-23T12:51:36.178Z,77.28
2022-10-23T12:54:04.740Z,77.20
2022-10-23T12:56:36.410Z,77.01
2022-10-23T12:59:09.037Z,76.89
2022-10-23T13:01:39.412Z,76.62
2022-10-23T13:04:29.436Z,76.42
2022-10-23T13:07:00.764Z,76.50
2022-10-23T13:09:35.814Z,76.70
2022-10-23T13:12:31.505Z,76.53
2022-10-23T13:15:10.924Z,76.37
2022-10-23T13:17:42.913Z,76.05
2022-10-23T13:20:25.979Z,76.11
2022-10-23T13:23:19.560Z,76.06
2022-10-23T13:26:00.403Z,76.08
2022-10-23T13:28:32.654Z,75.55
2022-10-23T13:31:18.086Z,74.77
2022-10-23T13:34:01.630Z,74.59
2022-10-23T13:36:34.524Z,74.88
2022-10-23T13:39:10.436Z,74.92
2022-10-23T13:41:44.761Z,74.65
2022-10-23T13:44:15.781Z,74.64
2022-10-23T13:46:43.906Z,74.79
2022-10-23T13:49:11.846Z,74.94
2022-10-23T13:51:50.557Z,74.77
2022-10-23T13:54:25.453Z,74.58
2022-10-23T13:56:54.780Z,74.79
2022-10-23T13:59:23.100Z,74.85
2022-10-23T14:01:51.838Z,74.84
2022-10-23T14:04:21.131Z,74.84
2022-10-23T14:06:48.851Z,74.78
2022-10-23T14:09:18.171Z,75.05
2022-10-23T14:11:45.510Z,75.24
2022-10-23T14:14:13.018Z,75.17
2022-10-23T14:16:40.683Z,75.26
2022-10-23T14:19:08.680Z,75.36
2022-10-23T14:21:36.428Z,75.19
2022-10-23T14:24:04.037Z,74.31
2022-10-23T14:26:32.309Z,74.03
2022-10-23T14:29:02.925Z,73.95
2022-10-23T14:31:29.525Z,73.64
2022-10-23T14:34:00.141Z,73.42
2022-10-23T14:36:38.382Z,73.28
2022-10-23T14:39:00.059Z,73.08
2022-10-23T14:41:27.779Z,72.82
2022-10-23T14:43:55.168Z,72.44
2022-10-23T14:46:24.655Z,72.17
2022-10-23T14:48:57.440Z,72.18
2022-10-23T14:51:27.080Z,72.04
2022-10-23T14:54:01.691Z,71.94
2022-10-23T14:56:32.923Z,71.90
2022-10-23T14:59:04.109Z,71.90
2022-10-23T15:01:35.784Z,71.85
2022-10-23T15:04:03.857Z,72.09
2022-10-23T15:06:33.980Z,72.32
2022-10-23T15:09:02.711Z,72.54
2022-10-23T15:11:31.154Z,72.59
2022-10-23T15:13:59.906Z,72.68
2022-10-23T15:16:28.439Z,72.83
2022-10-23T15:18:56.290Z,72.86
2022-10-23T15:21:23.966Z,73.00
2022-10-23T15:23:52.525Z,73.17
2022-10-23T15:26:22.736Z,73.34
2022-10-23T15:28:56.306Z,73.31
2022-10-23T15:31:40.262Z,73.29
2022-10-23T15:34:18.162Z,73.30
2022-10-23T15:36:46.735Z,73.31
2022-10-23T15:39:18.697Z,73.03
2022-10-23T15:41:47.133Z,73.08
2022-10-23T15:44:19.046Z,72.94
2022-10-23T15:46:48.044Z,72.91
2022-10-23T15:49:17.785Z,72.73
2022-10-23T15:51:45.894Z,72.89
2022-10-23T15:54:18.321Z,72.96
2022-10-23T15:56:49.072Z,73.12
2022-10-23T15:59:18.195Z,73.10
2022-10-23T16:01:45.908Z,73.14
2022-10-23T16:04:15.590Z,73.32
2022-10-23T16:06:44.928Z,73.37
2022-10-23T16:09:13.058Z,73.60
2022-10-23T16:11:42.417Z,73.83
2022-10-23T16:14:13.673Z,73.92
2022-10-23T16:16:41.719Z,74.11
2022-10-23T16:19:10.671Z,74.29
2022-10-23T16:21:38.583Z,74.47
2022-10-23T16:24:08.064Z,74.58
2022-10-23T16:26:36.624Z,74.83
2022-10-23T16:29:07.328Z,74.97
2022-10-23T16:31:35.384Z,75.11
2022-10-23T16:34:04.910Z,75.30
2022-10-23T16:36:33.982Z,75.30
2022-10-23T16:39:08.348Z,75.05
2022-10-23T16:41:54.150Z,75.24
2022-10-23T16:44:23.564Z,75.41
2022-10-23T16:46:56.205Z,75.36
2022-10-23T16:49:23.611Z,75.23
2022-10-23T16:51:50.737Z,74.91
2022-10-23T16:54:18.553Z,74.87
2022-10-23T16:56:46.843Z,74.87
2022-10-23T16:59:14.495Z,74.86
2022-10-23T17:01:42.033Z,75.07
2022-10-23T17:04:10.060Z,74.94
2022-10-23T17:06:37.590Z,74.72
2022-10-23T17:09:05.811Z,74.81
2022-10-23T17:11:38.380Z,74.88
2022-10-23T17:14:13.874Z,74.76
2022-10-23T17:16:51.103Z,74.65
2022-10-23T17:21:55.490Z,74.65
2022-10-23T17:24:23.997Z,74.56
2022-10-23T17:26:51.957Z,74.58
2022-10-23T17:29:20.572Z,74.73
2022-10-23T17:31:51.092Z,74.93
2022-10-23T17:34:22.260Z,74.85
2022-10-23T17:36:53.281Z,74.92
2022-10-23T17:39:25.378Z,74.99
2022-10-23T17:41:53.496Z,75.01
2022-10-23T17:44:21.705Z,75.20
2022-10-23T17:46:54.817Z,75.46
2022-10-23T17:49:24.051Z,75.38
2022-10-23T17:51:57.268Z,75.55
2022-10-23T17:54:27.067Z,75.45
2022-10-23T17:56:55.789Z,75.56
2022-10-23T17:59:23.938Z,75.50
2022-10-23T18:01:51.547Z,75.45
2022-10-23T18:04:20.954Z,75.37
2022-10-23T18:06:52.269Z,75.28
2022-10-23T18:09:21.440Z,75.02
2022-10-23T18:11:49.497Z,74.89
2022-10-23T18:14:19.976Z,74.88
2022-10-23T18:16:48.779Z,74.86
2022-10-23T18:19:18.267Z,74.93
2022-10-23T18:21:47.030Z,74.83
2022-10-23T18:24:15.553Z,74.80
2022-10-23T18:26:43.618Z,74.79
2022-10-23T18:29:12.679Z,74.83
2022-10-23T18:31:41.484Z,74.87
2022-10-23T18:34:20.537Z,74.81
2022-10-23T18:36:50.494Z,74.90
2022-10-23T18:39:22.789Z,75.02
2022-10-23T18:41:55.101Z,74.87
2022-10-23T18:44:26.854Z,74.96
2022-10-23T18:46:56.552Z,75.25
2022-10-23T18:49:24.300Z,75.44
2022-10-23T18:51:52.246Z,75.51
2022-10-23T18:54:21.277Z,75.68
2022-10-23T18:56:49.697Z,75.77
2022-10-23T18:59:20.050Z,75.87
2022-10-23T19:01:48.362Z,75.82
2022-10-23T19:04:18.067Z,75.89
2022-10-23T19:06:47.254Z,75.96
2022-10-23T19:09:15.748Z,75.98
2022-10-23T19:11:45.210Z,76.07
2022-10-23T19:14:12.884Z,76.23
2022-10-23T19:17:09.899Z,76.59
2022-10-23T19:19:51.630Z,76.76
2022-10-23T19:22:19.153Z,76.63
2022-10-23T19:24:55.848Z,76.27
2022-10-23T19:27:25.732Z,75.79
2022-10-23T19:29:55.140Z,75.64
2022-10-23T19:32:22.499Z,75.55
2022-10-23T19:34:49.914Z,75.59
2022-10-23T19:37:17.216Z,75.66
2022-10-23T19:39:45.035Z,75.71
2022-10-23T19:42:12.440Z,75.89
2022-10-23T19:44:40.088Z,75.97
2022-10-23T19:47:07.447Z,76.13
2022-10-23T19:49:35.024Z,76.27
2022-10-23T19:52:02.754Z,76.40
2022-10-23T19:54:30.437Z,76.42
2022-10-23T19:56:58.163Z,76.44
2022-10-23T19:59:25.976Z,76.45
2022-10-23T20:01:53.753Z,76.49
2022-10-23T20:04:21.457Z,76.55
2022-10-23T20:06:49.217Z,76.65
2022-10-23T20:09:16.862Z,76.76
2022-10-23T20:11:44.744Z,76.79
2022-10-23T20:14:13.022Z,76.83
2022-10-23T20:16:44.362Z,76.78
2022-10-23T20:21:46.871Z,76.63
2022-10-23T20:24:17.726Z,76.66
2022-10-23T20:26:50.255Z,76.65
2022-10-23T20:29:18.561Z,76.83
2022-10-23T20:31:46.282Z,77.16
2022-10-23T20:34:13.783Z,76.88
2022-10-23T20:36:46.669Z,76.86
2022-10-23T20:39:18.471Z,76.87
2022-10-23T20:41:47.238Z,76.68
2022-10-23T20:46:44.885Z,76.65
2022-10-23T20:49:13.678Z,76.62
2022-10-23T20:51:42.416Z,76.61
2022-10-23T20:54:10.751Z,76.63
2022-10-23T20:56:39.391Z,76.54
2022-10-23T20:59:15.867Z,76.50
2022-10-23T21:01:50.700Z,76.66
2022-10-23T21:04:22.499Z,76.92
2022-10-23T21:07:08.944Z,77.03
2022-10-23T21:09:22.630Z,77.21
2022-10-23T21:11:50.790Z,77.26
2022-10-23T21:14:18.273Z,77.35
2022-10-23T21:16:46.338Z,77.46
2022-10-23T21:19:15.509Z,77.52
2022-10-23T21:21:44.145Z,77.53
2022-10-23T21:24:15.016Z,77.45
2022-10-23T21:26:43.500Z,77.43
2022-10-23T21:29:20.522Z,77.51
2022-10-23T21:31:41.792Z,77.48
2022-10-23T21:36:48.561Z,77.75
2022-10-23T21:39:06.457Z,77.41
2022-10-23T21:41:34.718Z,77.22
2022-10-23T21:44:05.455Z,77.04
2022-10-23T21:46:35.407Z,76.70
2022-10-23T21:49:03.021Z,76.61
2022-10-23T21:51:37.902Z,76.13
2022-10-23T21:54:09.675Z,75.29
2022-10-23T21:56:44.849Z,75.06
2022-10-23T21:59:16.703Z,75.27
2022-10-23T22:01:46.239Z,75.35
2022-10-23T22:04:18.128Z,75.25
2022-10-23T22:06:48.126Z,75.50
2022-10-23T22:09:18.976Z,75.76
2022-10-23T22:11:49.658Z,75.92
2022-10-23T22:14:17.451Z,76.05
2022-10-23T22:16:45.463Z,76.08
2022-10-23T22:19:16.680Z,76.11
2022-10-23T22:21:44.422Z,76.11
2022-10-23T22:24:12.067Z,76.22
2022-10-23T22:26:47.236Z,76.22
2022-10-23T22:29:19.092Z,76.41
2022-10-23T22:31:49.923Z,76.27
2022-10-23T22:34:48.270Z,76.39
2022-10-23T22:36:56.785Z,76.38
2022-10-23T22:39:24.246Z,76.32
2022-10-23T22:41:51.930Z,76.46
2022-10-23T22:44:19.611Z,76.38
2022-10-23T22:46:47.487Z,76.31
2022-10-23T22:49:15.179Z,76.16
2022-10-23T22:51:42.614Z,76.22
2022-10-23T22:54:10.524Z,76.29
2022-10-23T22:56:38.129Z,76.19
2022-10-23T22:59:05.614Z,76.06
2022-10-23T23:01:38.442Z,75.97
2022-10-23T23:04:19.662Z,75.90
2022-10-23T23:06:35.752Z,75.90
2022-10-23T23:09:04.230Z,75.82
2022-10-23T23:11:37.087Z,75.87
2022-10-23T23:14:02.610Z,75.86
2022-10-23T23:16:31.974Z,75.75
2022-10-23T23:19:02.669Z,75.47
2022-10-23T23:21:30.986Z,74.90
2022-10-23T23:23:58.735Z,74.64
2022-10-23T23:26:26.573Z,74.85
2022-10-23T23:28:55.015Z,75.11
2022-10-23T23:31:26.117Z,75.28
2022-10-23T23:33:54.523Z,75.28
2022-10-23T23:36:27.822Z,75.35
2022-10-23T23:38:57.191Z,75.22
2022-10-23T23:41:26.091Z,75.14
2022-10-23T23:43:56.873Z,75.01
2022-10-23T23:46:25.489Z,75.08
2022-10-23T23:48:53.051Z,75.04
2022-10-23T23:51:24.375Z,74.86
2022-10-23T23:53:52.772Z,74.80
2022-10-23T23:56:21.041Z,74.75
2022-10-23T23:58:48.553Z,74.80
